KJAN

Jackson-Medgar Wiley Evers International Airport

Jackson, Mississippi, USA
METAR KJAN 180818Z AUTO 00000KT 2 1/2SM BR SCT002 OVC010 14/13 A3014 RMK AO2 T01440133
Observed Flight Rules
Dec-18 @ 08:18 UTC (32 minutes ago) Instrument Flight Rules
Wind Visibility Clouds Conditions
Calm 2 1/2 miles
  • Scattered at 200' AGL
  • Overcast at 1,000' AGL
  • Mist
Temperatures Readings
Current 14°C / 57°F
Dewpoint 13°C / 55°F
Humidity 94%
Altimeter 30.14" Hg
Pressure 1021 hPa
Elevation 91
METAR KJAN 180818Z AUTO 00000KT 2 1/2SM BR SCT002 OVC010 14/13 A3014 RMK AO2 T01440133
Observed Flight Rules
Dec-18 @ 08:18 UTC
(32 minutes ago)
IFR
Wind Visibility
Calm 2 1/2 miles
Clouds
  • Scattered at 200' AGL
  • Overcast at 1,000' AGL
Conditions
  • Mist
Temperature Dewpoint
14°C / 57°F 13°C / 55°F
Humidity Altimeter Pressure
94% 30.14" Hg 1021 hPa